TGPY/GND METAR and TAF weather

Enter ICAO airport designator
Station Type Date Time Source
TGPY METAR 2019/08/18 09:00 UTC NOAA

TGPY 180900Z VRB04KT 9999 FEW018 27/24 Q1014 NOSIG


Station Type Date Time Source
TGPY Decoded METAR 2019/08/18 09:00 UTC NOAA

Station name not available
Aug 18, 2019 - 05:00 AM EDT / 2019.08.18 0900 UTC
Wind: Variable at 5 MPH (4 KT):0
Visibility: greater than 7 mile(s):0
Sky conditions: mostly clear
Temperature: 80 F (27 C)
Dew Point: 75 F (24 C)
Relative Humidity: 83%
Pressure (altimeter): 29.94 in. Hg (1014 hPa)
ob: TGPY 180900Z VRB04KT 9999 FEW018 27/24 Q1014 NOSIG
cycle: 9

Station Type Date Time Source
TGPY TAF 2019/08/18 06:31 UTC NOAA

TAF TGPY 180400Z 1806/1906 09012KT 9999 FEW012CB SCT018 BKN036 PROB30 1808/1813 6000 SHRA FEW010CB BKN016
BECMG 1815/1817 12015KT SCT018

Example: see airport list